Airfield :
LOGIN :

Register | Disclaimer

   EN    FR    IT 

 










Legend :    VFR   Marginal VFR   IFR   Intensive IFR   Very Intensive IFR
Visi :
Ceiling :
>= 8 km
>= 3000ft
5 to 8 km
1000 to 3000 ft
1500m to 5 km
500 to 1000 ft
800 to 1500m
200 to 500 ft
< 800m
< 200 ft
Symbols :   Thunderstorms  Fog  Heavy snow  Heavy precipitations  Wind > 20 kt
SIGMETs :     Misc.  Thunderstorms  Icing  Turbulence  Mountain Waves  Volcanic Ashes






- Airport Elevation : 28 ft
- IATA code : SOZ


LFKS - Solenzara

CURRENT METAR :
  • 240400Z AUTO VRB02KT 9999 -RA BKN016 BKN022 BKN032 11/09 Q1024

EXPIRED METARs :
  • 240330Z AUTO 32003KT 270V010 9999 FEW018 SCT025 OVC041 11/08 Q1024
  • 240300Z AUTO 27004KT 250V310 9999 OVC048 11/08 Q1025
  • 240230Z AUTO 27004KT 9999 SCT020 SCT042 OVC048 11/08 Q1025
  • 240200Z AUTO 27005KT 9999 FEW031 SCT044 OVC052 11/08 Q1025
  • 240130Z AUTO 26004KT 230V300 9999 FEW033 OVC054 12/08 Q1025

TAF TAF LFKS
Valid from the 23 at 15:00 until the 24 at 15:00 UTC


231400Z 2315/2415 16007KT 9999 BKN012
TEMPO 2315/2318 BKN007



MET'MAP, your aeronautical weather chart ! - Copyright ORBIFLY December 2007 - Disclaimer

ORBIFLY MET'MAP TEAM :

Programming & Development : Alexandra Zaïnal
Concept & original design : Baudouin d'Aumeries
Assistance for programming : Marc-Olivier Méhu
Technical & hardware support : Manuel Goepfert

Contact : metmap@orbifly.com




SOURCES & CREDITS :

   NOAA